sensor_id;sensor_type;location;lat;lon;timestamp;temperature;humidity
3736;DHT22;1883;48.202;16.310;2023-07-24T00:11:29;24.30;75.40
3736;DHT22;1883;48.202;16.310;2023-07-24T00:13:56;24.20;75.40
3736;DHT22;1883;48.202;16.310;2023-07-24T00:16:23;24.20;75.40
3736;DHT22;1883;48.202;16.310;2023-07-24T00:18:50;24.30;75.40
3736;DHT22;1883;48.202;16.310;2023-07-24T00:21:17;24.20;75.30
3736;DHT22;1883;48.202;16.310;2023-07-24T00:23:43;24.20;75.30
3736;DHT22;1883;48.202;16.310;2023-07-24T00:26:10;24.30;75.30
3736;DHT22;1883;48.202;16.310;2023-07-24T00:28:39;24.20;75.20
3736;DHT22;1883;48.202;16.310;2023-07-24T00:31:06;24.10;75.10
3736;DHT22;1883;48.202;16.310;2023-07-24T00:33:33;24.10;75.00
3736;DHT22;1883;48.202;16.310;2023-07-24T00:36:00;24.00;74.90
3736;DHT22;1883;48.202;16.310;2023-07-24T00:38:27;24.20;74.90
3736;DHT22;1883;48.202;16.310;2023-07-24T00:43:44;24.00;74.80
3736;DHT22;1883;48.202;16.310;2023-07-24T00:46:11;23.90;74.70
3736;DHT22;1883;48.202;16.310;2023-07-24T00:48:39;23.80;74.70
3736;DHT22;1883;48.202;16.310;2023-07-24T00:51:06;23.80;74.70
3736;DHT22;1883;48.202;16.310;2023-07-24T00:53:33;23.80;74.70
3736;DHT22;1883;48.202;16.310;2023-07-24T00:56:00;23.80;74.70
3736;DHT22;1883;48.202;16.310;2023-07-24T00:58:28;23.90;74.70
3736;DHT22;1883;48.202;16.310;2023-07-24T01:00:56;23.80;74.70
3736;DHT22;1883;48.202;16.310;2023-07-24T01:03:30;23.80;74.70
3736;DHT22;1883;48.202;16.310;2023-07-24T01:05:58;23.70;74.80
3736;DHT22;1883;48.202;16.310;2023-07-24T01:08:26;23.70;74.80
3736;DHT22;1883;48.202;16.310;2023-07-24T01:10:53;23.60;74.80
3736;DHT22;1883;48.202;16.310;2023-07-24T01:13:24;23.70;74.80
3736;DHT22;1883;48.202;16.310;2023-07-24T01:15:57;23.60;74.80
3736;DHT22;1883;48.202;16.310;2023-07-24T01:18:27;23.50;74.80
3736;DHT22;1883;48.202;16.310;2023-07-24T01:20:56;23.50;74.90
3736;DHT22;1883;48.202;16.310;2023-07-24T01:23:36;23.50;74.80
3736;DHT22;1883;48.202;16.310;2023-07-24T01:26:06;23.50;74.90
3736;DHT22;1883;48.202;16.310;2023-07-24T01:28:34;23.50;74.90
3736;DHT22;1883;48.202;16.310;2023-07-24T01:49:51;23.50;75.20
3736;DHT22;1883;48.202;16.310;2023-07-24T02:02:39;23.40;74.80
3736;DHT22;1883;48.202;16.310;2023-07-24T02:18:21;23.30;74.40
3736;DHT22;1883;48.202;16.310;2023-07-24T02:40:45;22.90;73.60
3736;DHT22;1883;48.202;16.310;2023-07-24T02:58:46;22.70;73.20
3736;DHT22;1883;48.202;16.310;2023-07-24T03:01:13;22.60;73.20
3736;DHT22;1883;48.202;16.310;2023-07-24T03:14:03;22.40;73.10
3736;DHT22;1883;48.202;16.310;2023-07-24T03:16:30;22.40;73.10
3736;DHT22;1883;48.202;16.310;2023-07-24T03:18:57;22.20;73.00
3736;DHT22;1883;48.202;16.310;2023-07-24T03:44:45;22.20;72.50
3736;DHT22;1883;48.202;16.310;2023-07-24T23:00:59;23.70;73.70
3736;DHT22;1883;48.202;16.310;2023-07-24T23:03:41;23.70;73.70
3736;DHT22;1883;48.202;16.310;2023-07-24T23:06:27;23.70;73.70
3736;DHT22;1883;48.202;16.310;2023-07-24T23:09:10;23.70;73.60
3736;DHT22;1883;48.202;16.310;2023-07-24T23:12:12;23.70;73.60
3736;DHT22;1883;48.202;16.310;2023-07-24T23:14:58;23.70;73.50
3736;DHT22;1883;48.202;16.310;2023-07-24T23:55:30;23.30;72.80
3736;DHT22;1883;48.202;16.310;2023-07-24T23:57:58;23.20;72.60
